Time,TemperatureF,DewpointF,PressureIn,WindDirection,WindDirectionDegrees,WindSpeedMPH,WindSpeedGustMPH,Humidity,HourlyPrecipIn,Conditions,Clouds,dailyrainin,SolarRadiationWatts/m^2,SoftwareType,DateUTC
2013-01-09 00:04:00,47.0,46.2,29.94,North,360,0.0,0.1,97,0.12,RA,,0.01,0.0,WeatherDisplay:10.37,2013-01-09 06:04:00,
2013-01-09 00:09:00,47.1,46.3,29.93,North,360,1.2,0.0,97,0.13,RA,,0.02,0.0,WeatherDisplay:10.37,2013-01-09 06:09:00,
2013-01-09 00:15:00,47.1,46.3,29.92,North,360,0.0,0.0,97,0.00,RA,,0.03,0.0,WeatherDisplay:10.37,2013-01-09 06:15:00,
2013-01-09 00:20:00,47.1,46.3,29.92,North,360,0.0,0.0,97,0.00,RA,,0.04,0.0,WeatherDisplay:10.37,2013-01-09 06:20:00,
2013-01-09 00:25:00,47.1,46.3,29.93,North,355,3.5,3.5,97,0.13,RA,,0.05,0.0,WeatherDisplay:10.37,2013-01-09 06:25:00,
2013-01-09 00:30:00,47.2,46.4,29.92,North,355,0.0,0.0,97,0.13,RA,,0.06,0.0,WeatherDisplay:10.37,2013-01-09 06:30:00,
2013-01-09 00:36:00,47.3,46.4,29.92,North,355,0.0,0.0,97,0.01,RA,,0.08,0.0,WeatherDisplay:10.37,2013-01-09 06:36:00,
2013-01-09 00:41:00,47.3,46.5,29.91,North,355,0.0,0.0,97,0.01,RA,,0.09,0.0,WeatherDisplay:10.37,2013-01-09 06:41:00,
2013-01-09 00:46:00,47.4,46.6,29.91,North,355,0.0,0.0,97,0.00,RA,,0.10,0.0,WeatherDisplay:10.37,2013-01-09 06:46:00,
2013-01-09 00:51:00,47.4,46.6,29.91,North,355,0.0,0.0,97,0.01,RA,,0.11,0.0,WeatherDisplay:10.37,2013-01-09 06:51:00,
2013-01-09 00:56:00,47.5,46.7,29.91,North,355,1.0,2.0,97,0.00,RA,,0.12,0.0,WeatherDisplay:10.37,2013-01-09 06:56:00,
2013-01-09 01:01:00,47.7,46.9,29.91,North,355,3.0,3.0,97,0.13,RA,,0.13,0.0,WeatherDisplay:10.37,2013-01-09 07:01:00,
2013-01-09 01:06:00,47.9,47.1,29.92,North,355,5.8,5.8,97,0.13,RA,,0.14,0.0,WeatherDisplay:10.37,2013-01-09 07:06:00,
2013-01-09 01:11:00,47.8,47.0,29.91,North,5,6.9,6.9,97,0.13,RA,,0.16,0.0,WeatherDisplay:10.37,2013-01-09 07:11:00,
2013-01-09 01:16:00,47.7,46.9,29.92,North,360,6.9,6.9,97,0.13,RA,,0.17,0.0,WeatherDisplay:10.37,2013-01-09 07:16:00,
2013-01-09 01:22:00,47.6,46.8,29.92,NNE,14,3.0,4.0,97,0.00,RA,,0.18,0.0,WeatherDisplay:10.37,2013-01-09 07:22:00,
2013-01-09 01:27:00,47.6,46.8,29.92,North,354,3.0,5.0,97,0.00,RA,,0.19,0.0,WeatherDisplay:10.37,2013-01-09 07:27:00,
2013-01-09 01:32:00,47.6,46.8,29.92,North,360,5.0,6.0,97,0.00,RA,,0.20,0.0,WeatherDisplay:10.37,2013-01-09 07:32:00,
2013-01-09 01:37:00,47.6,46.8,29.92,North,6,2.0,4.0,97,0.00,RA,,0.21,0.0,WeatherDisplay:10.37,2013-01-09 07:37:00,
2013-01-09 01:42:00,47.7,46.9,29.92,North,6,2.0,5.0,97,0.00,RA,,0.22,0.0,WeatherDisplay:10.37,2013-01-09 07:42:00,
2013-01-09 01:47:00,47.8,47.0,29.92,NNE,15,5.0,5.0,97,0.00,RA,,0.23,0.0,WeatherDisplay:10.37,2013-01-09 07:47:00,
2013-01-09 01:52:00,47.8,47.0,29.92,North,353,1.0,3.0,97,0.00,RA,,0.24,0.0,WeatherDisplay:10.37,2013-01-09 07:52:00,
2013-01-09 01:57:00,47.9,47.1,29.93,North,354,2.0,4.0,97,0.00,RA,,0.25,0.0,WeatherDisplay:10.37,2013-01-09 07:57:00,
2013-01-09 02:02:00,48.1,47.3,29.94,North,5,4.6,4.6,97,0.13,RA,,0.26,0.0,WeatherDisplay:10.37,2013-01-09 08:02:00,
2013-01-09 02:07:00,48.2,47.4,29.94,North,355,3.5,3.5,97,0.13,RA,,0.27,0.0,WeatherDisplay:10.37,2013-01-09 08:07:00,
2013-01-09 02:12:00,48.4,47.6,29.94,NE,51,3.5,3.5,97,0.12,RA,,0.28,0.0,WeatherDisplay:10.37,2013-01-09 08:12:00,
2013-01-09 02:18:00,48.6,47.8,29.95,NE,45,4.0,4.0,97,0.12,RA,,0.30,0.0,WeatherDisplay:10.37,2013-01-09 08:18:00,
2013-01-09 02:23:00,48.7,47.9,29.94,NNE,28,1.0,2.0,97,0.00,RA,,0.30,0.0,WeatherDisplay:10.37,2013-01-09 08:23:00,
2013-01-09 02:28:00,48.9,48.1,29.94,NE,49,5.0,5.0,97,0.12,RA,,0.31,0.0,WeatherDisplay:10.37,2013-01-09 08:28:00,
2013-01-09 02:33:00,48.9,48.1,29.95,NE,41,3.0,5.0,97,0.00,RA,,0.32,0.0,WeatherDisplay:10.37,2013-01-09 08:33:00,
2013-01-09 02:38:00,49.0,48.2,29.94,NE,56,4.6,4.6,97,0.12,RA,,0.33,0.0,WeatherDisplay:10.37,2013-01-09 08:38:00,
2013-01-09 02:43:00,49.0,48.2,29.94,NE,52,3.0,3.0,97,0.00,RA,,0.34,0.0,WeatherDisplay:10.37,2013-01-09 08:43:00,
2013-01-09 02:48:00,49.0,48.2,29.95,ENE,57,3.0,5.0,97,0.00,RA,,0.35,0.0,WeatherDisplay:10.37,2013-01-09 08:48:00,
2013-01-09 02:53:00,49.0,48.2,29.94,NE,45,3.0,6.0,97,0.00,RA,,0.36,0.0,WeatherDisplay:10.37,2013-01-09 08:53:00,
2013-01-09 02:58:00,49.1,48.3,29.94,NE,39,1.0,5.0,97,0.00,RA,,0.37,0.0,WeatherDisplay:10.37,2013-01-09 08:58:00,
2013-01-09 03:03:00,49.1,48.3,29.94,North,5,7.0,7.0,97,0.12,RA,,0.38,0.0,WeatherDisplay:10.37,2013-01-09 09:03:00,
2013-01-09 03:08:00,49.2,48.4,29.93,NE,36,8.1,8.1,97,0.11,RA,,0.39,0.0,WeatherDisplay:10.37,2013-01-09 09:08:00,
2013-01-09 03:13:00,49.2,48.4,29.93,NE,43,8.1,8.1,97,0.12,RA,,0.40,0.0,WeatherDisplay:10.37,2013-01-09 09:13:00,
2013-01-09 03:18:00,49.2,48.4,29.93,North,355,8.1,8.1,97,0.12,RA,,0.42,0.0,WeatherDisplay:10.37,2013-01-09 09:18:00,
2013-01-09 03:23:00,49.3,48.5,29.92,NNE,30,6.9,6.9,97,0.12,RA,,0.42,0.0,WeatherDisplay:10.37,2013-01-09 09:23:00,
2013-01-09 03:29:00,49.3,48.5,29.92,NNE,14,5.0,7.0,97,0.00,RA,,0.44,0.0,WeatherDisplay:10.37,2013-01-09 09:29:00,
2013-01-09 03:34:00,49.4,48.6,29.92,NNE,22,4.6,4.6,97,0.13,RA,,0.45,0.0,WeatherDisplay:10.37,2013-01-09 09:34:00,
2013-01-09 03:39:00,49.4,48.6,29.92,NNE,21,3.0,6.0,97,0.00,RA,,0.46,0.0,WeatherDisplay:10.37,2013-01-09 09:39:00,
2013-01-09 03:44:00,49.5,48.7,29.92,NNE,18,1.0,5.0,97,0.01,RA,,0.47,0.0,WeatherDisplay:10.37,2013-01-09 09:44:00,
2013-01-09 03:49:00,49.6,48.8,29.93,NNE,20,3.0,5.0,97,0.01,RA,,0.48,0.0,WeatherDisplay:10.37,2013-01-09 09:49:00,
2013-01-09 03:54:00,49.6,48.8,29.93,NNE,30,2.0,4.0,97,0.00,RA,,0.48,0.0,WeatherDisplay:10.37,2013-01-09 09:54:00,
2013-01-09 03:59:00,49.6,48.8,29.93,NNE,33,2.0,6.0,97,0.01,RA,,0.50,0.0,WeatherDisplay:10.37,2013-01-09 09:59:00,
2013-01-09 04:04:00,49.7,48.9,29.94,NNE,30,4.6,4.6,97,0.12,RA,,0.50,0.0,WeatherDisplay:10.37,2013-01-09 10:04:00,
2013-01-09 04:09:00,49.8,49.0,29.93,NNE,29,3.5,3.5,97,0.11,RA,,0.51,0.0,WeatherDisplay:10.37,2013-01-09 10:09:00,
2013-01-09 04:14:00,49.8,49.0,29.94,NNE,30,3.0,4.0,97,0.00,RA,,0.52,0.0,WeatherDisplay:10.37,2013-01-09 10:14:00,
2013-01-09 04:19:00,49.8,49.0,29.93,NNE,23,3.0,5.0,97,0.00,RA,,0.53,0.0,WeatherDisplay:10.37,2013-01-09 10:19:00,
2013-01-09 04:24:00,49.8,49.0,29.93,North,11,3.0,7.0,97,0.00,RA,,0.54,0.0,WeatherDisplay:10.37,2013-01-09 10:24:00,
2013-01-09 04:29:00,49.9,49.1,29.93,NNE,12,3.0,7.0,97,0.00,RA,,0.55,0.0,WeatherDisplay:10.37,2013-01-09 10:29:00,
2013-01-09 04:34:00,49.9,49.1,29.94,NNE,22,3.0,6.0,97,0.00,RA,,0.56,0.0,WeatherDisplay:10.37,2013-01-09 10:34:00,
2013-01-09 04:39:00,50.0,49.2,29.94,NNE,16,3.0,5.0,97,0.01,RA,,0.57,0.0,WeatherDisplay:10.37,2013-01-09 10:39:00,
2013-01-09 04:44:00,50.1,49.3,29.94,NNE,12,3.0,5.0,97,0.00,RA,,0.58,0.0,WeatherDisplay:10.37,2013-01-09 10:44:00,
2013-01-09 04:49:00,50.1,49.3,29.94,North,8,2.0,5.0,97,0.00,RA,,0.58,0.0,WeatherDisplay:10.37,2013-01-09 10:49:00,
2013-01-09 04:54:00,50.2,49.4,29.94,North,358,5.0,6.0,97,0.00,RA,,0.59,0.0,WeatherDisplay:10.37,2013-01-09 10:54:00,
2013-01-09 04:59:00,50.1,49.3,29.94,North,355,3.0,5.0,97,0.00,RA,,0.60,0.0,WeatherDisplay:10.37,2013-01-09 10:59:00,
2013-01-09 05:04:00,50.1,49.3,29.95,North,360,6.9,6.9,97,0.11,RA,,0.61,0.0,WeatherDisplay:10.37,2013-01-09 11:04:00,
2013-01-09 05:09:00,50.2,49.4,29.95,North,5,8.1,8.1,97,0.11,RA,,0.62,0.0,WeatherDisplay:10.37,2013-01-09 11:09:00,
2013-01-09 05:14:00,50.3,49.5,29.95,NE,49,5.8,5.8,97,0.10,RA,,0.63,0.0,WeatherDisplay:10.37,2013-01-09 11:14:00,
2013-01-09 05:20:00,50.4,49.6,29.95,North,11,6.9,6.9,97,0.10,RA,,0.64,0.0,WeatherDisplay:10.37,2013-01-09 11:20:00,
2013-01-09 05:25:00,50.5,49.7,29.95,NNE,26,5.0,6.0,97,0.00,RA,,0.64,0.0,WeatherDisplay:10.37,2013-01-09 11:25:00,
2013-01-09 05:30:00,50.7,49.9,29.95,NE,53,8.1,8.1,97,0.10,RA,,0.65,0.0,WeatherDisplay:10.37,2013-01-09 11:30:00,
2013-01-09 05:35:00,50.9,50.1,29.96,NE,41,5.0,10.0,97,0.00,RA,,0.66,0.0,WeatherDisplay:10.37,2013-01-09 11:35:00,
2013-01-09 05:40:00,51.1,50.3,29.95,ENE,63,11.5,11.5,97,0.09,RA,,0.66,0.0,WeatherDisplay:10.37,2013-01-09 11:40:00,
2013-01-09 05:45:00,51.3,50.5,29.95,NNE,17,8.1,8.1,97,0.09,RA,,0.67,0.0,WeatherDisplay:10.37,2013-01-09 11:45:00,
2013-01-09 05:50:00,51.3,50.5,29.95,NNE,24,8.1,8.1,97,0.10,RA,,0.68,0.0,WeatherDisplay:10.37,2013-01-09 11:50:00,
2013-01-09 05:56:00,51.4,50.6,29.95,NE,39,6.0,7.0,97,0.00,RA,,0.69,0.0,WeatherDisplay:10.37,2013-01-09 11:56:00,
2013-01-09 06:01:00,51.4,50.6,29.95,NE,40,4.6,5.0,97,0.10,RA,,0.70,0.0,WeatherDisplay:10.37,2013-01-09 12:01:00,
2013-01-09 06:06:00,51.4,50.6,29.95,NNE,17,8.0,8.0,97,0.09,RA,,0.70,0.0,WeatherDisplay:10.37,2013-01-09 12:06:00,
2013-01-09 06:11:00,51.4,50.6,29.95,NNE,13,4.6,4.6,97,0.09,RA,,0.71,0.0,WeatherDisplay:10.37,2013-01-09 12:11:00,
2013-01-09 06:17:00,51.4,50.6,29.96,NNE,25,5.0,5.0,97,0.09,RA,,0.72,0.0,WeatherDisplay:10.37,2013-01-09 12:17:00,
2013-01-09 06:22:00,51.5,50.6,29.95,NNE,31,2.0,10.0,97,0.01,RA,,0.73,0.0,WeatherDisplay:10.37,2013-01-09 12:22:00,
2013-01-09 06:27:00,51.5,50.7,29.95,NNE,32,2.0,7.0,97,0.00,RA,,0.73,0.0,WeatherDisplay:10.37,2013-01-09 12:27:00,
2013-01-09 06:32:00,51.5,50.7,29.96,NNE,29,3.0,6.0,97,0.00,RA,,0.74,0.0,WeatherDisplay:10.37,2013-01-09 12:32:00,
2013-01-09 06:37:00,51.6,50.8,29.96,NNE,21,3.0,5.0,97,0.00,RA,,0.75,0.0,WeatherDisplay:10.37,2013-01-09 12:37:00,
2013-01-09 06:42:00,51.6,50.8,29.95,NNE,27,5.0,5.0,97,0.01,RA,,0.76,0.0,WeatherDisplay:10.37,2013-01-09 12:42:00,
2013-01-09 06:47:00,51.7,50.9,29.95,NNE,28,3.0,7.0,97,0.00,RA,,0.76,0.0,WeatherDisplay:10.37,2013-01-09 12:47:00,
2013-01-09 06:52:00,51.7,50.9,29.95,NNE,31,5.0,8.0,97,0.00,RA,,0.77,0.0,WeatherDisplay:10.37,2013-01-09 12:52:00,
2013-01-09 06:57:00,51.7,50.9,29.96,NE,34,5.0,6.0,97,0.01,RA,,0.78,0.0,WeatherDisplay:10.37,2013-01-09 12:57:00,
2013-01-09 07:02:00,51.8,51.0,29.96,NE,41,8.1,8.1,97,0.08,RA,,0.78,0.0,WeatherDisplay:10.37,2013-01-09 13:02:00,
2013-01-09 07:07:00,51.8,51.0,29.96,NNE,17,8.1,8.1,97,0.09,RA,,0.79,0.0,WeatherDisplay:10.37,2013-01-09 13:07:00,
2013-01-09 07:12:00,51.9,51.1,29.96,NE,40,10.4,10.4,97,0.09,RA,,0.80,0.0,WeatherDisplay:10.37,2013-01-09 13:12:00,
2013-01-09 07:18:00,51.9,51.1,29.96,NNE,32,10.4,10.4,97,0.09,RA,,0.81,0.0,WeatherDisplay:10.37,2013-01-09 13:18:00,
2013-01-09 07:23:00,51.9,51.1,29.96,NNE,15,7.0,12.0,97,0.00,RA,,0.81,0.0,WeatherDisplay:10.37,2013-01-09 13:23:00,
2013-01-09 07:28:00,52.0,51.2,29.97,NE,44,8.1,8.1,97,0.08,RA,,0.82,0.0,WeatherDisplay:10.37,2013-01-09 13:28:00,
2013-01-09 07:33:00,52.1,51.3,29.97,North,5,14.0,14.0,97,0.09,RA,,0.83,0.0,WeatherDisplay:10.37,2013-01-09 13:33:00,
2013-01-09 07:38:00,52.1,51.3,29.97,NNE,18,6.0,10.0,97,0.01,RA,,0.84,0.0,WeatherDisplay:10.37,2013-01-09 13:38:00,
2013-01-09 07:43:00,52.1,51.3,29.97,NNE,15,6.0,10.0,97,0.00,RA,,0.84,0.0,WeatherDisplay:10.37,2013-01-09 13:43:00,
2013-01-09 07:48:00,52.1,51.3,29.97,NNE,27,6.0,7.0,97,0.00,RA,,0.85,0.0,WeatherDisplay:10.37,2013-01-09 13:48:00,
2013-01-09 07:53:00,52.1,51.3,29.97,NE,38,7.0,9.0,97,0.00,RA,,0.86,0.0,WeatherDisplay:10.37,2013-01-09 13:53:00,
2013-01-09 07:58:00,52.1,51.3,29.97,NE,36,5.0,8.0,97,0.00,RA,,0.86,0.0,WeatherDisplay:10.37,2013-01-09 13:58:00,
2013-01-09 08:03:00,52.1,51.3,29.98,North,11,6.9,6.9,97,0.09,RA,,0.87,0.0,WeatherDisplay:10.37,2013-01-09 14:03:00,
2013-01-09 08:08:00,52.0,51.2,29.97,NE,36,11.5,11.5,97,0.09,RA,,0.88,0.0,WeatherDisplay:10.37,2013-01-09 14:08:00,
2013-01-09 08:13:00,51.9,51.1,29.98,NE,38,11.5,11.5,97,0.09,RA,,0.89,0.0,WeatherDisplay:10.37,2013-01-09 14:13:00,
2013-01-09 08:18:00,51.8,51.0,29.98,NNE,19,11.5,11.5,97,0.09,RA,,0.90,5.0,WeatherDisplay:10.37,2013-01-09 14:18:00,
2013-01-09 08:23:00,51.7,50.9,29.98,NE,42,9.2,9.2,97,0.09,RA,,0.90,5.0,WeatherDisplay:10.37,2013-01-09 14:23:00,
2013-01-09 08:29:00,51.7,50.9,29.98,NE,36,6.0,7.0,97,0.00,RA,,0.91,7.0,WeatherDisplay:10.37,2013-01-09 14:29:00,
2013-01-09 08:34:00,51.7,50.9,29.99,NNE,31,6.0,10.0,97,0.00,RA,,0.92,7.0,WeatherDisplay:10.37,2013-01-09 14:34:00,
2013-01-09 08:39:00,51.6,50.8,29.99,NNE,31,5.0,6.0,97,0.00,RA,,0.92,9.0,WeatherDisplay:10.37,2013-01-09 14:39:00,
2013-01-09 08:44:00,51.6,50.8,29.99,NNE,32,5.0,6.0,97,0.00,RA,,0.93,7.0,WeatherDisplay:10.37,2013-01-09 14:44:00,
2013-01-09 08:49:00,51.6,50.8,29.99,NNE,33,6.0,10.0,97,0.00,RA,,0.94,9.0,WeatherDisplay:10.37,2013-01-09 14:49:00,
2013-01-09 08:54:00,51.6,50.8,29.99,NE,36,9.2,9.2,97,0.08,RA,,0.94,7.0,WeatherDisplay:10.37,2013-01-09 14:54:00,
2013-01-09 08:59:00,51.6,50.8,29.99,NNE,27,6.0,10.0,97,0.00,RA,,0.95,9.0,WeatherDisplay:10.37,2013-01-09 14:59:00,
2013-01-09 09:04:00,51.7,50.9,29.99,NE,40,6.9,6.9,97,0.08,RA,,0.96,9.0,WeatherDisplay:10.37,2013-01-09 15:04:00,
2013-01-09 09:09:00,51.7,50.9,29.99,NNE,21,10.4,10.4,97,0.09,RA,,0.97,12.0,WeatherDisplay:10.37,2013-01-09 15:09:00,
2013-01-09 09:14:00,51.8,51.0,29.99,NE,44,10.4,10.4,97,0.08,RA,,0.98,16.0,WeatherDisplay:10.37,2013-01-09 15:14:00,
2013-01-09 09:19:00,51.9,51.1,29.99,NNE,29,10.4,10.4,97,0.08,RA,,0.98,18.0,WeatherDisplay:10.37,2013-01-09 15:19:00,
2013-01-09 09:24:00,51.9,51.1,29.99,NE,47,11.5,11.5,97,0.09,RA,,0.99,18.0,WeatherDisplay:10.37,2013-01-09 15:24:00,
2013-01-09 09:29:00,52.0,51.2,29.99,NNE,29,8.1,8.1,97,0.09,RA,,1.00,21.0,WeatherDisplay:10.37,2013-01-09 15:29:00,
2013-01-09 09:35:00,52.0,51.2,29.99,NNE,29,6.0,8.0,97,0.00,RA,,1.00,19.0,WeatherDisplay:10.37,2013-01-09 15:35:00,
2013-01-09 09:40:00,52.1,51.3,29.99,NE,51,8.1,8.1,97,0.09,RA,,1.01,23.0,WeatherDisplay:10.37,2013-01-09 15:40:00,
2013-01-09 09:45:00,52.1,51.3,29.99,NE,38,6.0,9.0,97,0.00,RA,,1.02,23.0,WeatherDisplay:10.37,2013-01-09 15:45:00,
2013-01-09 09:50:00,52.2,51.4,29.99,NE,34,8.1,8.1,97,0.08,RA,,1.02,25.0,WeatherDisplay:10.37,2013-01-09 15:50:00,
2013-01-09 09:55:00,52.2,51.4,29.99,NNE,32,12.7,12.7,97,0.08,RA,,1.03,21.0,WeatherDisplay:10.37,2013-01-09 15:55:00,
2013-01-09 10:00:00,52.3,51.5,29.99,NE,41,9.0,9.0,97,0.08,RA,,1.04,23.0,WeatherDisplay:10.37,2013-01-09 16:00:00,
2013-01-09 10:05:00,52.4,51.6,29.99,NE,53,8.1,8.1,97,0.08,RA,,1.05,26.0,WeatherDisplay:10.37,2013-01-09 16:05:00,
2013-01-09 10:11:00,52.5,51.7,29.99,NNE,28,6.0,10.0,97,0.00,RA,,1.05,32.0,WeatherDisplay:10.37,2013-01-09 16:11:00,
2013-01-09 10:16:00,52.6,51.8,29.99,NNE,31,6.0,10.0,97,0.00,RA,,1.06,32.0,WeatherDisplay:10.37,2013-01-09 16:16:00,
2013-01-09 10:21:00,52.7,51.9,29.99,NE,35,7.0,10.0,97,0.00,RA,,1.07,35.0,WeatherDisplay:10.37,2013-01-09 16:21:00,
2013-01-09 10:26:00,52.8,52.0,29.99,NE,36,6.0,8.0,97,0.01,RA,,1.08,37.0,WeatherDisplay:10.37,2013-01-09 16:26:00,
2013-01-09 10:31:00,53.0,52.2,29.98,NE,35,5.0,7.0,97,0.00,RA,,1.08,32.0,WeatherDisplay:10.37,2013-01-09 16:31:00,
2013-01-09 10:36:00,53.1,52.3,29.98,NE,38,6.0,8.0,97,0.00,RA,,1.09,33.0,WeatherDisplay:10.37,2013-01-09 16:36:00,
2013-01-09 10:41:00,53.3,52.5,29.99,NE,36,6.0,8.0,97,0.01,RA,,1.10,26.0,WeatherDisplay:10.37,2013-01-09 16:41:00,
2013-01-09 10:46:00,53.4,52.6,29.98,NE,39,6.0,7.0,97,0.00,RA,,1.10,25.0,WeatherDisplay:10.37,2013-01-09 16:46:00,
2013-01-09 10:51:00,53.5,52.7,29.98,NE,47,11.5,11.5,97,0.08,RA,,1.11,28.0,WeatherDisplay:10.37,2013-01-09 16:51:00,
2013-01-09 10:56:00,53.6,52.8,29.98,NE,41,7.0,12.0,97,0.00,RA,,1.12,26.0,WeatherDisplay:10.37,2013-01-09 16:56:00,
2013-01-09 11:01:00,53.7,52.9,29.98,NE,54,11.0,11.0,97,0.08,RA,,1.12,37.0,WeatherDisplay:10.37,2013-01-09 17:01:00,
2013-01-09 11:06:00,53.8,53.0,29.98,ENE,57,10.4,10.4,97,0.08,RA,,1.13,33.0,WeatherDisplay:10.37,2013-01-09 17:06:00,
2013-01-09 11:11:00,53.8,53.0,29.98,ENE,64,10.4,10.4,97,0.09,RA,,1.14,39.0,WeatherDisplay:10.37,2013-01-09 17:11:00,
2013-01-09 11:17:00,53.9,53.1,29.97,NE,34,8.1,8.1,97,0.08,RA,,1.14,33.0,WeatherDisplay:10.37,2013-01-09 17:17:00,
2013-01-09 11:22:00,53.9,53.1,29.97,NE,44,5.0,8.0,97,0.00,RA,,1.15,30.0,WeatherDisplay:10.37,2013-01-09 17:22:00,
2013-01-09 11:27:00,53.9,53.1,29.97,NE,40,9.0,12.0,97,0.00,RA,,1.16,58.0,WeatherDisplay:10.37,2013-01-09 17:27:00,
2013-01-09 11:32:00,53.9,53.1,29.96,NE,34,8.0,17.0,97,0.00,RA,,1.17,51.0,WeatherDisplay:10.37,2013-01-09 17:32:00,
2013-01-09 11:37:00,54.0,53.2,29.96,NE,40,7.0,12.0,97,0.00,RA,,1.18,37.0,WeatherDisplay:10.37,2013-01-09 17:37:00,
2013-01-09 11:42:00,54.1,53.3,29.96,NE,46,7.0,15.0,97,0.00,RA,,1.18,30.0,WeatherDisplay:10.37,2013-01-09 17:42:00,
2013-01-09 11:47:00,54.1,53.3,29.95,NE,40,8.0,13.0,97,0.00,RA,,1.19,44.0,WeatherDisplay:10.37,2013-01-09 17:47:00,
2013-01-09 11:52:00,54.2,53.4,29.95,NE,37,6.0,10.0,97,0.00,RA,,1.20,35.0,WeatherDisplay:10.37,2013-01-09 17:52:00,
2013-01-09 11:57:00,54.2,53.4,29.95,NE,34,5.0,6.0,97,0.00,RA,,1.21,46.0,WeatherDisplay:10.37,2013-01-09 17:57:00,
2013-01-09 12:02:00,54.3,53.5,29.94,NE,50,11.5,11.5,97,0.10,RA,,1.22,42.0,WeatherDisplay:10.37,2013-01-09 18:02:00,
2013-01-09 12:07:00,54.3,53.5,29.94,NE,44,9.2,9.2,97,0.09,RA,,1.22,44.0,WeatherDisplay:10.37,2013-01-09 18:07:00,
2013-01-09 12:12:00,54.4,53.6,29.93,NE,47,9.2,9.2,97,0.09,RA,,1.24,42.0,WeatherDisplay:10.37,2013-01-09 18:12:00,
2013-01-09 12:17:00,54.4,53.6,29.92,NE,46,9.2,9.2,97,0.10,RA,,1.24,39.0,WeatherDisplay:10.37,2013-01-09 18:17:00,
2013-01-09 12:22:00,54.4,53.6,29.92,NE,53,9.2,9.2,97,0.10,RA,,1.25,35.0,WeatherDisplay:10.37,2013-01-09 18:22:00,
2013-01-09 12:28:00,54.4,53.6,29.92,ENE,59,11.5,11.5,97,0.10,RA,,1.26,49.0,WeatherDisplay:10.37,2013-01-09 18:28:00,
2013-01-09 12:33:00,54.5,53.7,29.91,NE,34,11.5,11.5,97,0.10,RA,,1.27,51.0,WeatherDisplay:10.37,2013-01-09 18:33:00,
2013-01-09 12:38:00,54.6,53.8,29.92,NE,52,7.0,13.0,97,0.01,RA,,1.28,60.0,WeatherDisplay:10.37,2013-01-09 18:38:00,
2013-01-09 12:41:00,54.6,53.8,29.92,NE,45,11.5,11.5,97,0.10,RA,,1.28,42.0,WeatherDisplay:10.37,2013-01-09 18:41:00,
2013-01-09 12:42:00,54.6,53.8,29.92,NE,48,7.0,12.0,97,0.00,RA,,1.28,40.0,WeatherDisplay:10.37,2013-01-09 18:42:00,
2013-01-09 12:43:00,54.6,53.8,29.92,NE,50,6.0,10.0,97,0.00,RA,,1.28,44.0,WeatherDisplay:10.37,2013-01-09 18:43:00,
2013-01-09 12:44:00,54.7,53.9,29.92,NE,45,7.0,12.0,97,0.00,RA,,1.28,44.0,WeatherDisplay:10.37,2013-01-09 18:44:00,
2013-01-09 12:45:00,54.7,53.9,29.91,NE,45,7.0,10.0,97,0.00,RA,,1.29,47.0,WeatherDisplay:10.37,2013-01-09 18:45:00,
2013-01-09 12:48:00,54.7,53.9,29.91,NNE,32,11.5,11.5,97,0.09,RA,,1.29,46.0,WeatherDisplay:10.37,2013-01-09 18:48:00,
2013-01-09 12:49:00,54.8,54.0,29.91,NE,53,11.5,11.5,97,0.09,RA,,1.29,46.0,WeatherDisplay:10.37,2013-01-09 18:49:00,
2013-01-09 12:50:00,54.7,53.9,29.91,NE,52,6.0,12.0,97,0.00,RA,,1.30,54.0,WeatherDisplay:10.37,2013-01-09 18:50:00,
2013-01-09 12:55:00,54.8,54.0,29.91,ENE,63,11.5,11.5,97,0.10,RA,,1.30,33.0,WeatherDisplay:10.37,2013-01-09 18:55:00,
2013-01-09 13:00:00,54.8,54.0,29.91,NE,51,10.4,10.4,97,0.10,RA,,1.31,44.0,WeatherDisplay:10.37,2013-01-09 19:00:00,
2013-01-09 13:06:00,54.9,54.1,29.91,ENE,59,8.1,8.1,97,0.10,RA,,1.32,37.0,WeatherDisplay:10.37,2013-01-09 19:06:00,
2013-01-09 13:11:00,54.9,54.1,29.91,NE,48,9.0,10.0,97,0.00,RA,,1.33,26.0,WeatherDisplay:10.37,2013-01-09 19:11:00,
2013-01-09 13:16:00,54.9,54.1,29.91,NE,46,8.0,12.0,97,0.00,RA,,1.34,28.0,WeatherDisplay:10.37,2013-01-09 19:16:00,
2013-01-09 13:21:00,54.9,54.1,29.91,NE,53,7.0,10.0,97,0.00,RA,,1.34,39.0,WeatherDisplay:10.37,2013-01-09 19:21:00,
2013-01-09 13:26:00,54.9,54.1,29.91,ENE,63,5.0,8.0,97,0.01,RA,,1.36,35.0,WeatherDisplay:10.37,2013-01-09 19:26:00,
2013-01-09 13:31:00,54.9,54.1,29.91,ENE,65,8.0,10.0,97,0.00,RA,,1.36,33.0,WeatherDisplay:10.37,2013-01-09 19:31:00,
2013-01-09 13:36:00,54.9,54.0,29.90,ENE,61,6.0,8.0,97,0.00,RA,,1.37,32.0,WeatherDisplay:10.37,2013-01-09 19:36:00,
2013-01-09 13:41:00,54.9,54.1,29.90,ENE,58,7.0,14.0,97,0.00,RA,,1.38,33.0,WeatherDisplay:10.37,2013-01-09 19:41:00,
2013-01-09 13:46:00,54.9,54.1,29.90,ENE,67,7.0,10.0,97,0.00,RA,,1.39,28.0,WeatherDisplay:10.37,2013-01-09 19:46:00,
2013-01-09 13:51:00,54.9,54.1,29.90,ENE,62,7.0,9.0,97,0.00,RA,,1.40,26.0,WeatherDisplay:10.37,2013-01-09 19:51:00,
2013-01-09 13:56:00,55.0,54.1,29.90,NE,55,6.0,12.0,97,0.01,RA,,1.41,26.0,WeatherDisplay:10.37,2013-01-09 19:56:00,
2013-01-09 14:01:00,55.0,54.2,29.90,NE,53,12.7,12.7,97,0.11,RA,,1.42,33.0,WeatherDisplay:10.37,2013-01-09 20:01:00,
2013-01-09 14:06:00,55.0,54.2,29.89,NNE,31,12.7,12.7,97,0.10,RA,,1.42,35.0,WeatherDisplay:10.37,2013-01-09 20:06:00,
2013-01-09 14:11:00,55.1,54.3,29.88,ENE,65,12.7,12.7,97,0.10,RA,,1.44,54.0,WeatherDisplay:10.37,2013-01-09 20:11:00,
2013-01-09 14:17:00,55.1,54.3,29.87,NNE,15,16.1,16.1,97,0.10,RA,,1.44,54.0,WeatherDisplay:10.37,2013-01-09 20:17:00,
2013-01-09 14:22:00,55.1,54.3,29.87,NE,44,13.0,17.0,97,0.00,RA,,1.45,51.0,WeatherDisplay:10.37,2013-01-09 20:22:00,
2013-01-09 14:27:00,55.2,54.4,29.86,NE,44,13.0,18.0,97,0.00,RA,,1.46,53.0,WeatherDisplay:10.37,2013-01-09 20:27:00,
2013-01-09 14:32:00,55.2,54.4,29.86,NE,49,12.0,17.0,97,0.00,RA,,1.47,60.0,WeatherDisplay:10.37,2013-01-09 20:32:00,
2013-01-09 14:37:00,55.3,54.5,29.85,ENE,65,12.7,12.7,97,0.11,RA,,1.48,60.0,WeatherDisplay:10.37,2013-01-09 20:37:00,
2013-01-09 14:42:00,55.3,54.5,29.85,NE,51,13.0,20.0,97,0.00,RA,,1.49,56.0,WeatherDisplay:10.37,2013-01-09 20:42:00,
2013-01-09 14:47:00,55.3,54.5,29.85,ENE,57,14.0,17.0,97,0.00,RA,,1.50,42.0,WeatherDisplay:10.37,2013-01-09 20:47:00,
2013-01-09 14:52:00,55.3,54.5,29.86,NE,55,12.0,13.0,97,0.00,RA,,1.50,40.0,WeatherDisplay:10.37,2013-01-09 20:52:00,
2013-01-09 14:57:00,55.3,54.5,29.86,NE,54,14.0,20.0,97,0.00,RA,,1.51,42.0,WeatherDisplay:10.37,2013-01-09 20:57:00,
2013-01-09 15:02:00,55.4,54.6,29.87,ENE,74,17.3,17.3,97,0.10,RA,,1.52,42.0,WeatherDisplay:10.37,2013-01-09 21:02:00,
2013-01-09 15:07:00,55.4,54.6,29.88,ENE,58,17.3,17.3,97,0.11,RA,,1.53,28.0,WeatherDisplay:10.37,2013-01-09 21:07:00,
2013-01-09 15:12:00,55.4,54.6,29.88,NNE,23,13.8,13.8,97,0.10,RA,,1.54,18.0,WeatherDisplay:10.37,2013-01-09 21:12:00,
2013-01-09 15:17:00,55.4,54.6,29.89,East,79,10.4,10.4,97,0.10,RA,,1.55,16.0,WeatherDisplay:10.37,2013-01-09 21:17:00,
2013-01-09 15:23:00,55.4,54.6,29.89,ENE,75,11.5,11.5,97,0.09,RA,,1.55,12.0,WeatherDisplay:10.37,2013-01-09 21:23:00,
2013-01-09 15:28:00,55.4,54.5,29.89,ENE,64,8.0,12.0,97,0.00,RA,,1.56,14.0,WeatherDisplay:10.37,2013-01-09 21:28:00,
2013-01-09 15:33:00,55.4,54.5,29.89,ENE,65,7.0,12.0,97,0.00,RA,,1.57,11.0,WeatherDisplay:10.37,2013-01-09 21:33:00,
2013-01-09 15:38:00,55.4,54.5,29.89,NE,56,8.0,12.0,97,0.00,RA,,1.58,12.0,WeatherDisplay:10.37,2013-01-09 21:38:00,
2013-01-09 15:43:00,55.3,54.5,29.90,ENE,58,9.0,12.0,97,0.00,RA,,1.58,11.0,WeatherDisplay:10.37,2013-01-09 21:43:00,
2013-01-09 15:48:00,55.3,54.5,29.90,ENE,69,8.0,12.0,97,0.00,RA,,1.59,16.0,WeatherDisplay:10.37,2013-01-09 21:48:00,
2013-01-09 15:53:00,55.3,54.5,29.90,ENE,74,9.0,14.0,97,0.00,RA,,1.60,16.0,WeatherDisplay:10.37,2013-01-09 21:53:00,
2013-01-09 15:58:00,55.3,54.5,29.91,ENE,78,7.0,12.0,97,0.00,RA,,1.60,14.0,WeatherDisplay:10.37,2013-01-09 21:58:00,
2013-01-09 16:03:00,55.4,54.6,29.91,ENE,78,13.8,13.8,97,0.09,RA,,1.61,11.0,WeatherDisplay:10.37,2013-01-09 22:03:00,
2013-01-09 16:08:00,55.4,54.6,29.91,ENE,76,11.5,11.5,97,0.09,RA,,1.62,11.0,WeatherDisplay:10.37,2013-01-09 22:08:00,
2013-01-09 16:13:00,55.3,54.5,29.91,ENE,69,13.8,13.8,97,0.08,RA,,1.62,9.0,WeatherDisplay:10.37,2013-01-09 22:13:00,
2013-01-09 16:18:00,55.3,54.5,29.90,ESE,107,11.5,11.5,97,0.08,RA,,1.63,9.0,WeatherDisplay:10.37,2013-01-09 22:18:00,
2013-01-09 16:23:00,55.2,54.4,29.90,ENE,73,11.5,11.5,97,0.09,RA,,1.64,7.0,WeatherDisplay:10.37,2013-01-09 22:23:00,
2013-01-09 16:28:00,55.1,54.3,29.90,ENE,74,12.0,12.0,97,0.08,RA,,1.65,5.0,WeatherDisplay:10.37,2013-01-09 22:28:00,
2013-01-09 16:34:00,55.1,54.3,29.90,ENE,66,7.0,12.0,97,0.00,RA,,1.65,0.0,WeatherDisplay:10.37,2013-01-09 22:34:00,
2013-01-09 16:39:00,55.0,54.2,29.90,ENE,72,8.0,13.0,97,0.00,RA,,1.66,5.0,WeatherDisplay:10.37,2013-01-09 22:39:00,
2013-01-09 16:44:00,55.0,54.2,29.90,ENE,65,18.4,18.4,97,0.09,RA,,1.67,5.0,WeatherDisplay:10.37,2013-01-09 22:44:00,
2013-01-09 16:49:00,55.0,54.2,29.90,ENE,77,9.0,12.0,97,0.00,RA,,1.67,5.0,WeatherDisplay:10.37,2013-01-09 22:49:00,
2013-01-09 16:54:00,54.9,54.1,29.90,East,79,10.0,13.0,97,0.00,RA,,1.68,0.0,WeatherDisplay:10.37,2013-01-09 22:54:00,
2013-01-09 16:59:00,54.9,54.1,29.91,ENE,72,9.0,14.0,97,0.01,RA,,1.69,0.0,WeatherDisplay:10.37,2013-01-09 22:59:00,
2013-01-09 17:04:00,54.9,54.1,29.90,ENE,64,8.1,8.1,97,0.08,RA,,1.69,0.0,WeatherDisplay:10.37,2013-01-09 23:04:00,
2013-01-09 17:09:00,54.8,54.0,29.90,East,80,15.0,15.0,97,0.08,RA,,1.70,0.0,WeatherDisplay:10.37,2013-01-09 23:09:00,
2013-01-09 17:14:00,54.8,54.0,29.90,East,82,11.5,11.5,97,0.09,RA,,1.71,0.0,WeatherDisplay:10.37,2013-01-09 23:14:00,
2013-01-09 17:20:00,54.8,54.0,29.90,ENE,78,17.3,17.3,97,0.08,RA,,1.71,0.0,WeatherDisplay:10.37,2013-01-09 23:20:00,
2013-01-09 17:25:00,54.8,54.0,29.90,ENE,69,8.0,12.0,97,0.00,RA,,1.72,0.0,WeatherDisplay:10.37,2013-01-09 23:25:00,
2013-01-09 17:30:00,54.8,54.0,29.90,ENE,67,13.8,13.8,97,0.07,RA,,1.73,0.0,WeatherDisplay:10.37,2013-01-09 23:30:00,
2013-01-09 17:35:00,54.8,54.0,29.90,NE,51,12.7,12.7,97,0.08,RA,,1.73,0.0,WeatherDisplay:10.37,2013-01-09 23:35:00,
2013-01-09 17:40:00,54.8,54.0,29.91,ENE,65,12.7,12.7,97,0.08,RA,,1.74,0.0,WeatherDisplay:10.37,2013-01-09 23:40:00,
2013-01-09 17:45:00,54.7,53.9,29.90,ENE,70,13.8,13.8,97,0.07,RA,,1.74,0.0,WeatherDisplay:10.37,2013-01-09 23:45:00,
2013-01-09 17:50:00,54.6,53.5,29.89,ENE,71,15.0,15.0,96,0.08,RA,,1.75,0.0,WeatherDisplay:10.37,2013-01-09 23:50:00,
2013-01-09 17:56:00,54.5,53.4,29.89,ENE,70,7.0,14.0,96,0.01,RA,,1.76,0.0,WeatherDisplay:10.37,2013-01-09 23:56:00,
2013-01-09 18:01:00,54.5,53.7,29.89,ENE,73,14.0,17.0,97,0.00,RA,,1.76,0.0,WeatherDisplay:10.37,2013-01-10 00:01:00,
2013-01-09 18:06:00,54.4,53.6,29.88,ENE,76,17.3,17.3,97,0.07,RA,,1.77,0.0,WeatherDisplay:10.37,2013-01-10 00:06:00,
2013-01-09 18:12:00,54.4,53.6,29.88,ENE,60,17.3,17.3,97,0.07,RA,,1.77,0.0,WeatherDisplay:10.37,2013-01-10 00:12:00,
2013-01-09 18:17:00,54.3,53.5,29.88,ENE,64,12.0,20.0,97,0.00,RA,,1.78,0.0,WeatherDisplay:10.37,2013-01-10 00:17:00,
2013-01-09 18:22:00,54.3,53.2,29.87,ENE,70,12.0,15.0,96,0.00,RA,,1.78,0.0,WeatherDisplay:10.37,2013-01-10 00:22:00,
2013-01-09 18:27:00,54.2,53.1,29.87,ENE,65,13.0,17.0,96,0.00,RA,,1.79,0.0,WeatherDisplay:10.37,2013-01-10 00:27:00,
2013-01-09 18:32:00,54.1,53.0,29.85,NE,56,14.0,20.0,96,0.00,RA,,1.80,0.0,WeatherDisplay:10.37,2013-01-10 00:32:00,
2013-01-09 18:37:00,54.1,53.0,29.83,NE,49,14.0,21.0,96,0.00,RA,,1.80,0.0,WeatherDisplay:10.37,2013-01-10 00:37:00,
2013-01-09 18:42:00,54.0,52.9,29.83,NE,54,14.0,17.0,96,0.00,RA,,1.81,0.0,WeatherDisplay:10.37,2013-01-10 00:42:00,
2013-01-09 18:47:00,54.0,52.9,29.82,NE,53,16.0,20.0,96,0.01,RA,,1.82,0.0,WeatherDisplay:10.37,2013-01-10 00:47:00,
2013-01-09 18:52:00,54.0,52.9,29.83,ENE,62,15.0,18.0,96,0.00,RA,,1.82,0.0,WeatherDisplay:10.37,2013-01-10 00:52:00,
2013-01-09 18:57:00,54.1,52.9,29.84,ENE,69,17.0,22.0,96,0.00,RA,,1.83,0.0,WeatherDisplay:10.37,2013-01-10 00:57:00,
2013-01-09 19:02:00,54.1,53.0,29.84,ENE,66,18.4,18.4,96,0.07,RA,,1.83,0.0,WeatherDisplay:10.37,2013-01-10 01:02:00,
2013-01-09 19:07:00,54.1,53.0,29.85,East,82,20.7,20.7,96,0.07,RA,,1.84,0.0,WeatherDisplay:10.37,2013-01-10 01:07:00,
2013-01-09 19:12:00,54.1,53.0,29.86,NE,46,18.4,18.4,96,0.07,RA,,1.84,0.0,WeatherDisplay:10.37,2013-01-10 01:12:00,
2013-01-09 19:17:00,54.2,53.1,29.86,ENE,65,17.3,17.3,96,0.07,RA,,1.85,0.0,WeatherDisplay:10.37,2013-01-10 01:17:00,
2013-01-09 19:23:00,54.2,53.1,29.86,East,92,13.8,13.8,96,0.07,RA,,1.85,0.0,WeatherDisplay:10.37,2013-01-10 01:23:00,
2013-01-09 19:28:00,54.3,53.2,29.86,ENE,78,12.0,14.0,96,0.00,RA,,1.86,0.0,WeatherDisplay:10.37,2013-01-10 01:28:00,
2013-01-09 19:33:00,54.3,53.2,29.85,ENE,71,14.0,14.0,96,0.00,RA,,1.86,0.0,WeatherDisplay:10.37,2013-01-10 01:33:00,
2013-01-09 19:38:00,54.4,53.3,29.85,ENE,64,12.0,14.0,96,0.00,RA,,1.87,0.0,WeatherDisplay:10.37,2013-01-10 01:38:00,
2013-01-09 19:43:00,54.5,53.4,29.85,ENE,65,8.0,10.0,96,0.01,RA,,1.88,0.0,WeatherDisplay:10.37,2013-01-10 01:43:00,
2013-01-09 19:48:00,54.5,53.4,29.85,ENE,70,12.0,13.0,96,0.00,RA,,1.88,0.0,WeatherDisplay:10.37,2013-01-10 01:48:00,
2013-01-09 19:53:00,54.5,53.4,29.86,East,82,12.0,12.0,96,0.06,,,1.88,0.0,WeatherDisplay:10.37,2013-01-10 01:53:00,
2013-01-09 19:58:00,54.5,53.4,29.85,NE,46,12.7,12.7,96,0.06,RA,,1.89,0.0,WeatherDisplay:10.37,2013-01-10 01:58:00,
2013-01-09 20:04:00,54.5,53.4,29.84,NE,53,18.4,18.4,96,0.07,RA,,1.90,0.0,WeatherDisplay:10.37,2013-01-10 02:04:00,
2013-01-09 20:09:00,54.5,53.4,29.85,ENE,61,17.3,17.3,96,0.06,RA,,1.90,0.0,WeatherDisplay:10.37,2013-01-10 02:09:00,
2013-01-09 20:14:00,54.5,53.4,29.84,ENE,76,15.0,15.0,96,0.06,,,1.90,0.0,WeatherDisplay:10.37,2013-01-10 02:14:00,
2013-01-09 20:19:00,54.5,53.4,29.86,East,84,15.0,15.0,96,0.06,RA,,1.91,0.0,WeatherDisplay:10.37,2013-01-10 02:19:00,
2013-01-09 20:24:00,54.6,53.5,29.86,ENE,71,11.5,11.5,96,0.05,RA,,1.92,0.0,WeatherDisplay:10.37,2013-01-10 02:24:00,
2013-01-09 20:30:00,54.6,53.5,29.87,ENE,76,8.1,8.1,96,0.06,RA,,1.92,0.0,WeatherDisplay:10.37,2013-01-10 02:30:00,
2013-01-09 20:35:00,54.7,53.6,29.87,ENE,64,8.1,8.1,96,0.05,,,1.92,0.0,WeatherDisplay:10.37,2013-01-10 02:35:00,
2013-01-09 20:40:00,54.6,53.5,29.86,ENE,74,7.0,10.0,96,0.00,RA,,1.93,0.0,WeatherDisplay:10.37,2013-01-10 02:40:00,
2013-01-09 20:45:00,54.6,53.5,29.87,ENE,57,5.8,5.8,96,0.05,RA,,1.93,0.0,WeatherDisplay:10.37,2013-01-10 02:45:00,
2013-01-09 20:50:00,54.6,53.5,29.88,ENE,69,9.2,9.2,96,0.06,RA,,1.94,0.0,WeatherDisplay:10.37,2013-01-10 02:50:00,
2013-01-09 20:55:00,54.6,53.5,29.87,ENE,77,8.1,8.1,96,0.05,RA,,1.94,0.0,WeatherDisplay:10.37,2013-01-10 02:55:00,
2013-01-09 21:01:00,54.7,53.6,29.86,ENE,68,6.9,6.9,96,0.05,,,1.94,0.0,WeatherDisplay:10.37,2013-01-10 03:01:00,
2013-01-09 21:06:00,54.7,53.6,29.87,East,84,6.9,6.9,96,0.05,RA,,1.95,0.0,WeatherDisplay:10.37,2013-01-10 03:06:00,
2013-01-09 21:11:00,54.7,53.6,29.88,East,82,5.8,5.8,96,0.05,RA,,1.95,0.0,WeatherDisplay:10.37,2013-01-10 03:11:00,
2013-01-09 21:16:00,54.8,53.7,29.89,East,91,4.6,4.6,96,0.05,RA,,1.96,0.0,WeatherDisplay:10.37,2013-01-10 03:16:00,
2013-01-09 21:21:00,54.8,53.7,29.89,East,80,5.8,5.8,96,0.05,RA,,1.96,0.0,WeatherDisplay:10.37,2013-01-10 03:21:00,
2013-01-09 21:26:00,54.8,53.7,29.89,East,80,4.6,4.6,96,0.04,,,1.96,0.0,WeatherDisplay:10.37,2013-01-10 03:26:00,
2013-01-09 21:32:00,54.9,53.8,29.89,East,84,3.0,4.0,96,0.00,RA,,1.97,0.0,WeatherDisplay:10.37,2013-01-10 03:32:00,
2013-01-09 21:37:00,54.9,53.8,29.89,East,85,0.0,0.0,96,0.00,RA,,1.97,0.0,WeatherDisplay:10.37,2013-01-10 03:37:00,
2013-01-09 21:42:00,54.9,53.8,29.89,East,85,0.0,0.0,96,0.01,RA,,1.98,0.0,WeatherDisplay:10.37,2013-01-10 03:42:00,
2013-01-09 21:47:00,54.9,53.7,29.90,East,87,0.0,1.0,96,0.00,RA,,1.98,0.0,WeatherDisplay:10.37,2013-01-10 03:47:00,
2013-01-09 21:52:00,54.8,53.7,29.90,East,87,0.0,2.0,96,0.00,RA,,1.98,0.0,WeatherDisplay:10.37,2013-01-10 03:52:00,
2013-01-09 21:57:00,54.9,53.8,29.91,East,87,0.0,0.0,96,0.00,RA,,1.98,0.0,WeatherDisplay:10.37,2013-01-10 03:57:00,
2013-01-09 22:02:00,54.9,53.8,29.90,East,87,2.3,2.3,96,0.05,RA,,1.99,0.0,WeatherDisplay:10.37,2013-01-10 04:02:00,
2013-01-09 22:07:00,54.9,53.8,29.90,East,87,2.3,2.3,96,0.04,RA,,1.99,0.0,WeatherDisplay:10.37,2013-01-10 04:07:00,
2013-01-09 22:12:00,54.9,53.8,29.91,East,87,0.0,0.0,96,0.05,RA,,2.00,0.0,WeatherDisplay:10.37,2013-01-10 04:12:00,
2013-01-09 22:17:00,54.9,53.8,29.91,East,87,3.5,3.5,96,0.04,RA,,2.00,0.0,WeatherDisplay:10.37,2013-01-10 04:17:00,
2013-01-09 22:22:00,54.9,53.8,29.90,East,87,2.0,2.0,96,0.04,,,2.00,0.0,WeatherDisplay:10.37,2013-01-10 04:22:00,
2013-01-09 22:28:00,54.8,53.7,29.90,East,87,2.3,2.3,96,0.05,RA,,2.01,0.0,WeatherDisplay:10.37,2013-01-10 04:28:00,
2013-01-09 22:33:00,54.8,53.7,29.90,East,83,3.0,5.0,96,0.00,RA,,2.01,0.0,WeatherDisplay:10.37,2013-01-10 04:33:00,
2013-01-09 22:38:00,54.9,54.1,29.89,ENE,78,4.6,4.6,97,0.05,RA,,2.02,0.0,WeatherDisplay:10.37,2013-01-10 04:38:00,
2013-01-09 22:43:00,54.9,54.1,29.89,East,79,3.0,5.0,97,0.00,RA,,2.02,0.0,WeatherDisplay:10.37,2013-01-10 04:43:00,
2013-01-09 22:48:00,54.8,53.7,29.88,ENE,68,6.0,8.0,96,0.00,RA,,2.02,0.0,WeatherDisplay:10.37,2013-01-10 04:48:00,
2013-01-09 22:53:00,54.8,53.7,29.88,ENE,71,5.0,7.0,96,0.01,RA,,2.03,0.0,WeatherDisplay:10.37,2013-01-10 04:53:00,
2013-01-09 22:58:00,54.8,54.0,29.88,ENE,75,6.0,6.3,97,0.05,RA,,2.03,0.0,WeatherDisplay:10.37,2013-01-10 04:58:00,
2013-01-09 23:00:00,54.8,54.0,29.88,East,80,5.0,6.0,97,0.00,RA,,2.03,0.0,WeatherDisplay:10.37,2013-01-10 05:00:00,
2013-01-09 23:05:00,54.8,54.0,29.88,ENE,68,10.4,10.4,97,0.05,RA,,2.04,0.0,WeatherDisplay:10.37,2013-01-10 05:05:00,
2013-01-09 23:10:00,54.9,54.1,29.87,ENE,64,4.6,4.6,97,0.05,RA,,2.04,0.0,WeatherDisplay:10.37,2013-01-10 05:10:00,
2013-01-09 23:16:00,54.8,54.0,29.87,ENE,73,5.0,7.0,97,0.00,RA,,2.04,0.0,WeatherDisplay:10.37,2013-01-10 05:16:00,
2013-01-09 23:21:00,54.8,54.0,29.87,ENE,66,5.0,7.0,97,0.00,RA,,2.05,0.0,WeatherDisplay:10.37,2013-01-10 05:21:00,
2013-01-09 23:26:00,54.8,54.0,29.87,ENE,70,7.0,8.0,97,0.00,RA,,2.05,0.0,WeatherDisplay:10.37,2013-01-10 05:26:00,
2013-01-09 23:31:00,54.7,53.9,29.87,ENE,77,6.0,7.0,97,0.00,RA,,2.05,0.0,WeatherDisplay:10.37,2013-01-10 05:31:00,
2013-01-09 23:36:00,54.7,53.9,29.87,ENE,78,6.0,12.0,97,0.00,RA,,2.06,0.0,WeatherDisplay:10.37,2013-01-10 05:36:00,
2013-01-09 23:41:00,54.6,53.8,29.86,ENE,72,7.0,12.0,97,0.00,RA,,2.06,0.0,WeatherDisplay:10.37,2013-01-10 05:41:00,
2013-01-09 23:46:00,54.6,53.8,29.86,ENE,70,7.0,7.0,97,0.00,RA,,2.06,0.0,WeatherDisplay:10.37,2013-01-10 05:46:00,
2013-01-09 23:51:00,54.6,53.8,29.86,ENE,69,7.0,10.0,97,0.00,RA,,2.07,0.0,WeatherDisplay:10.37,2013-01-10 05:51:00,
2013-01-09 23:56:00,54.6,53.8,29.86,ENE,77,5.0,8.0,97,0.00,RA,,2.07,0.0,WeatherDisplay:10.37,2013-01-10 05:56:00,